createdAt,value
2022-11-16T00:00:17.592Z,7.17
2022-11-16T00:02:44.721Z,7.97
2022-11-16T00:05:11.836Z,7.57
2022-11-16T00:07:38.913Z,9.37
2022-11-16T00:10:06.275Z,7.80
2022-11-16T00:12:33.334Z,8.47
2022-11-16T00:15:00.395Z,9.87
2022-11-16T00:17:27.483Z,6.90
2022-11-16T00:19:54.606Z,6.90
2022-11-16T00:22:21.714Z,8.13
2022-11-16T00:24:48.796Z,8.10
2022-11-16T00:27:15.996Z,6.67
2022-11-16T00:29:43.049Z,6.13
2022-11-16T00:32:10.556Z,7.80
2022-11-16T00:34:37.662Z,7.33
2022-11-16T00:37:04.687Z,9.80
2022-11-16T00:39:31.795Z,8.27
2022-11-16T00:41:58.866Z,6.67
2022-11-16T00:44:25.934Z,5.83
2022-11-16T00:46:53.061Z,7.33
2022-11-16T00:49:20.141Z,7.93
2022-11-16T00:51:47.182Z,6.37
2022-11-16T00:54:14.251Z,5.43
2022-11-16T00:56:41.338Z,5.57
2022-11-16T00:59:08.557Z,6.40
2022-11-16T01:01:35.714Z,5.67
2022-11-16T01:04:02.817Z,6.70
2022-11-16T01:06:29.899Z,6.50
2022-11-16T01:08:56.968Z,6.80
2022-11-16T01:11:42.598Z,6.43
2022-11-16T01:14:10.160Z,6.07
2022-11-16T01:16:37.237Z,5.90
2022-11-16T01:19:04.965Z,5.57
2022-11-16T01:21:32.151Z,6.07
2022-11-16T01:23:59.200Z,5.63
2022-11-16T01:26:26.233Z,6.53
2022-11-16T01:28:53.444Z,6.03
2022-11-16T01:31:20.508Z,5.70
2022-11-16T01:33:47.626Z,6.37
2022-11-16T01:36:17.260Z,7.00
2022-11-16T01:38:45.619Z,6.40
2022-11-16T01:41:17.073Z,8.47
2022-11-16T01:43:55.413Z,5.47
2022-11-16T01:46:23.379Z,6.77
2022-11-16T01:48:53.963Z,6.73
2022-11-16T01:51:21.737Z,7.93
2022-11-16T01:53:48.820Z,6.80
2022-11-16T01:56:15.969Z,6.47
2022-11-16T01:58:43.078Z,6.73
2022-11-16T02:01:10.233Z,6.53
2022-11-16T02:03:38.325Z,6.47
2022-11-16T02:06:11.253Z,6.77
2022-11-16T02:09:11.798Z,8.80
2022-11-16T02:11:48.510Z,5.47
2022-11-16T02:14:15.526Z,6.60
2022-11-16T02:16:58.378Z,8.23
2022-11-16T02:19:31.645Z,6.57
2022-11-16T02:22:01.528Z,6.20
2022-11-16T02:24:34.413Z,6.93
2022-11-16T02:27:15.790Z,6.17
2022-11-16T02:29:48.181Z,6.93
2022-11-16T02:32:21.270Z,5.57
2022-11-16T02:34:53.391Z,7.53
2022-11-16T02:37:21.403Z,5.47
2022-11-16T02:39:49.878Z,7.30
2022-11-16T02:42:20.055Z,6.57
2022-11-16T02:44:48.513Z,6.17
2022-11-16T02:47:19.697Z,8.13
2022-11-16T02:49:49.187Z,5.87
2022-11-16T02:52:17.725Z,9.00
2022-11-16T02:54:44.808Z,7.57
2022-11-16T02:57:11.828Z,8.10
2022-11-16T02:59:41.890Z,6.87
2022-11-16T03:02:18.773Z,7.47
2022-11-16T03:05:05.117Z,6.40
2022-11-16T03:07:52.424Z,7.17
2022-11-16T03:10:39.428Z,8.73
2022-11-16T03:13:07.217Z,6.57
2022-11-16T03:15:37.243Z,7.37
2022-11-16T03:18:05.073Z,7.83
2022-11-16T03:20:33.061Z,6.47
2022-11-16T03:23:01.958Z,6.10
2022-11-16T03:25:32.227Z,6.47
2022-11-16T03:28:17.735Z,6.57
2022-11-16T03:30:49.031Z,6.97
2022-11-16T03:33:31.349Z,6.63
2022-11-16T03:35:58.417Z,7.63
2022-11-16T03:38:26.896Z,6.33
2022-11-16T03:40:56.789Z,7.23
2022-11-16T03:43:24.851Z,5.60
2022-11-16T03:45:51.894Z,10.30
2022-11-16T03:48:19.014Z,6.10
2022-11-16T03:50:46.241Z,6.40
2022-11-16T03:53:13.298Z,6.50
2022-11-16T03:55:41.188Z,7.00
2022-11-16T03:58:10.593Z,7.20
2022-11-16T04:00:37.717Z,5.93
2022-11-16T04:03:04.808Z,5.83
2022-11-16T04:05:50.434Z,7.07
2022-11-16T04:08:36.992Z,7.63
2022-11-16T04:11:22.883Z,6.57
2022-11-16T04:14:09.582Z,7.13
2022-11-16T04:16:55.486Z,5.83
2022-11-16T04:19:41.372Z,6.00
2022-11-16T04:22:31.604Z,6.33
2022-11-16T04:25:03.127Z,6.17
2022-11-16T04:27:50.397Z,8.10
2022-11-16T04:30:17.487Z,5.83
2022-11-16T04:33:03.278Z,6.47
2022-11-16T04:35:49.027Z,5.73
2022-11-16T04:38:16.107Z,5.03
2022-11-16T04:40:43.198Z,4.80
2022-11-16T04:43:10.275Z,4.53
2022-11-16T04:46:15.708Z,6.50
2022-11-16T04:48:42.809Z,6.10
2022-11-16T04:51:09.869Z,6.47
2022-11-16T04:53:36.969Z,5.70
2022-11-16T04:56:04.103Z,5.80
2022-11-16T04:58:31.456Z,5.93
2022-11-16T05:01:00.463Z,5.07
2022-11-16T05:03:27.545Z,5.77
2022-11-16T05:05:54.612Z,5.93
2022-11-16T05:08:21.673Z,6.17
2022-11-16T05:10:51.219Z,5.03
2022-11-16T05:13:18.259Z,5.80
2022-11-16T05:15:48.403Z,5.30
2022-11-16T05:18:15.474Z,5.77
2022-11-16T05:21:00.815Z,4.50
2022-11-16T05:23:46.425Z,4.77
2022-11-16T05:26:13.493Z,4.70
2022-11-16T05:28:40.537Z,5.10
2022-11-16T05:31:07.595Z,3.97
2022-11-16T05:33:34.655Z,4.47
2022-11-16T05:36:01.701Z,6.60
2022-11-16T05:38:28.746Z,5.50
2022-11-16T05:40:55.784Z,4.93
2022-11-16T05:43:22.822Z,5.20
2022-11-16T05:45:49.922Z,5.37
2022-11-16T05:48:16.962Z,5.67
2022-11-16T05:50:44.023Z,4.90
2022-11-16T05:53:11.122Z,6.03
2022-11-16T05:55:38.167Z,5.87
2022-11-16T05:58:05.216Z,5.20
2022-11-16T06:00:32.326Z,5.17
2022-11-16T06:02:59.507Z,5.37
2022-11-16T06:05:26.605Z,4.83
2022-11-16T06:07:53.657Z,5.53
2022-11-16T06:10:20.726Z,6.43
2022-11-16T06:12:47.788Z,6.37
2022-11-16T06:15:14.825Z,5.27
2022-11-16T06:17:41.893Z,5.57
2022-11-16T06:20:09.960Z,4.73
2022-11-16T06:22:37.160Z,6.83
2022-11-16T06:25:06.667Z,5.20
2022-11-16T06:27:33.760Z,5.50
2022-11-16T06:30:00.857Z,5.00
2022-11-16T06:32:27.974Z,6.03
2022-11-16T06:34:55.319Z,5.10
2022-11-16T06:37:22.402Z,5.27
2022-11-16T06:39:49.443Z,5.70
2022-11-16T06:42:16.555Z,5.10
2022-11-16T06:44:43.601Z,5.47
2022-11-16T06:47:10.654Z,5.20
2022-11-16T06:49:37.707Z,5.73
2022-11-16T06:52:04.775Z,4.90
2022-11-16T06:54:31.845Z,6.80
2022-11-16T06:56:58.914Z,5.07
2022-11-16T06:59:25.960Z,4.80
2022-11-16T07:01:53.055Z,6.63
2022-11-16T07:04:20.136Z,6.00
2022-11-16T07:06:47.606Z,4.87
2022-11-16T07:09:15.081Z,5.37
2022-11-16T07:11:42.373Z,5.60
2022-11-16T07:14:09.538Z,4.57
2022-11-16T07:16:36.814Z,7.00
2022-11-16T07:19:04.021Z,5.37
2022-11-16T07:21:31.141Z,6.43
2022-11-16T07:23:58.176Z,5.53
2022-11-16T07:26:25.215Z,5.33
2022-11-16T07:28:52.297Z,5.77
2022-11-16T07:31:19.431Z,5.57
2022-11-16T07:33:46.477Z,5.47
2022-11-16T07:36:14.990Z,6.60
2022-11-16T07:38:42.177Z,5.40
2022-11-16T07:41:11.215Z,6.70
2022-11-16T07:43:39.817Z,6.17
2022-11-16T07:49:01.543Z,6.47
2022-11-16T07:51:28.613Z,5.00
2022-11-16T07:53:55.964Z,5.67
2022-11-16T07:56:23.067Z,5.00
2022-11-16T07:58:50.235Z,5.20
2022-11-16T08:01:18.488Z,4.60
2022-11-16T08:03:46.541Z,5.80
2022-11-16T08:06:13.627Z,5.03
2022-11-16T08:08:40.756Z,6.70
2022-11-16T08:11:09.847Z,5.83
2022-11-16T08:13:38.056Z,5.30
2022-11-16T08:16:08.742Z,4.10
2022-11-16T08:18:36.777Z,6.80
2022-11-16T08:21:04.888Z,5.70
2022-11-16T08:23:32.247Z,5.77
2022-11-16T08:26:03.823Z,5.43
2022-11-16T08:28:31.582Z,5.70
2022-11-16T08:30:59.334Z,6.33
2022-11-16T08:33:27.142Z,5.53
2022-11-16T08:35:54.938Z,7.10
2022-11-16T08:38:22.046Z,6.10
2022-11-16T08:40:50.790Z,5.50
2022-11-16T08:43:17.869Z,5.83
2022-11-16T08:45:48.196Z,6.37
2022-11-16T08:48:15.428Z,7.13
2022-11-16T08:51:15.379Z,6.20
2022-11-16T08:53:29.546Z,5.63
2022-11-16T08:55:56.589Z,7.67
2022-11-16T08:58:23.628Z,5.50
2022-11-16T09:00:51.337Z,5.97
2022-11-16T09:03:18.401Z,8.03
2022-11-16T09:05:46.721Z,6.27
2022-11-16T09:08:13.759Z,5.57
2022-11-16T09:10:40.849Z,6.23
2022-11-16T09:13:07.908Z,6.17
2022-11-16T09:15:34.967Z,6.50
2022-11-16T09:18:02.017Z,6.60
2022-11-16T09:20:29.302Z,6.23
2022-11-16T09:22:56.381Z,6.20
2022-11-16T09:25:23.505Z,6.73
2022-11-16T09:27:50.548Z,6.70
2022-11-16T09:30:18.425Z,7.27
2022-11-16T09:32:45.507Z,6.90
2022-11-16T09:35:12.782Z,7.57
2022-11-16T09:37:39.826Z,7.33
2022-11-16T09:40:07.249Z,7.83
2022-11-16T09:42:37.042Z,6.60
2022-11-16T09:45:08.845Z,6.70
2022-11-16T09:47:39.089Z,6.13
2022-11-16T09:50:07.013Z,7.10
2022-11-16T09:52:37.434Z,5.87
2022-11-16T09:55:18.892Z,6.57
2022-11-16T09:57:47.714Z,4.33
2022-11-16T10:00:18.081Z,5.43
2022-11-16T10:02:47.287Z,5.80
2022-11-16T10:05:32.572Z,5.57
2022-11-16T10:08:03.713Z,5.37
2022-11-16T10:10:34.816Z,5.40
2022-11-16T10:13:25.154Z,5.93
2022-11-16T10:15:57.981Z,5.30
2022-11-16T10:18:37.000Z,4.63
2022-11-16T10:21:07.312Z,4.70
2022-11-16T10:23:40.299Z,5.20
2022-11-16T10:26:07.323Z,4.37
2022-11-16T10:28:49.144Z,6.53
2022-11-16T10:31:18.907Z,5.00
2022-11-16T10:33:47.361Z,4.57
2022-11-16T10:36:15.594Z,3.30
2022-11-16T10:38:43.689Z,4.30
2022-11-16T10:41:28.873Z,4.43
2022-11-16T10:43:57.111Z,4.13
2022-11-16T10:46:44.556Z,5.20
2022-11-16T10:49:17.681Z,5.17
2022-11-16T10:51:44.727Z,4.33
2022-11-16T10:54:15.801Z,4.77
2022-11-16T10:56:45.391Z,4.87
2022-11-16T10:59:13.841Z,4.07
2022-11-16T11:01:40.944Z,5.10
2022-11-16T11:04:19.003Z,3.60
2022-11-16T11:06:46.778Z,3.30
2022-11-16T11:09:25.845Z,3.23
2022-11-16T11:12:30.505Z,2.60
2022-11-16T11:15:00.290Z,3.67
2022-11-16T11:17:27.817Z,3.30
2022-11-16T11:20:01.982Z,2.53
2022-11-16T11:22:29.193Z,3.00
2022-11-16T11:24:56.559Z,2.67
2022-11-16T11:27:29.533Z,2.83
2022-11-16T11:29:58.647Z,2.57
2022-11-16T11:32:33.570Z,2.23
2022-11-16T11:35:01.554Z,2.70
2022-11-16T11:37:33.943Z,2.63
2022-11-16T11:40:06.901Z,2.60
2022-11-16T11:42:34.535Z,2.37
2022-11-16T11:45:05.865Z,2.73
2022-11-16T11:47:57.996Z,2.50
2022-11-16T11:50:37.647Z,2.63
2022-11-16T11:53:16.810Z,2.60
2022-11-16T11:55:43.844Z,2.50
2022-11-16T11:58:17.232Z,2.57
2022-11-16T12:01:04.526Z,2.60
2022-11-16T12:03:31.693Z,2.40
2022-11-16T12:06:09.753Z,2.23
2022-11-16T12:08:42.599Z,2.50
2022-11-16T12:11:15.958Z,3.03
2022-11-16T12:13:48.867Z,2.20
2022-11-16T12:16:28.054Z,2.87
2022-11-16T12:19:01.006Z,2.53
2022-11-16T12:21:35.581Z,3.57
2022-11-16T12:24:11.093Z,2.50
2022-11-16T12:26:38.200Z,3.63
2022-11-16T12:29:12.522Z,2.50
2022-11-16T12:31:45.525Z,2.87
2022-11-16T12:34:32.933Z,2.80
2022-11-16T12:37:11.395Z,2.90
2022-11-16T12:39:44.962Z,3.07
2022-11-16T12:42:18.095Z,2.80
2022-11-16T12:44:55.635Z,3.47
2022-11-16T12:47:47.346Z,3.27
2022-11-16T12:50:17.144Z,4.07
2022-11-16T12:52:53.156Z,3.67
2022-11-16T12:55:30.106Z,3.10
2022-11-16T12:58:05.383Z,3.60
2022-11-16T13:00:53.179Z,2.77
2022-11-16T13:03:35.908Z,3.10
2022-11-16T13:06:05.377Z,2.97
2022-11-16T13:08:47.330Z,4.10
2022-11-16T13:11:16.529Z,4.33
2022-11-16T13:13:49.598Z,3.63
2022-11-16T13:16:20.485Z,3.33
2022-11-16T13:18:47.793Z,3.30
2022-11-16T13:21:17.652Z,3.87
2022-11-16T13:23:50.409Z,3.67
2022-11-16T13:26:27.646Z,4.07
2022-11-16T13:28:59.220Z,3.33
2022-11-16T13:31:32.057Z,4.50
2022-11-16T13:34:13.763Z,4.30
2022-11-16T13:36:45.105Z,4.00
2022-11-16T13:39:22.530Z,4.30
2022-11-16T13:41:51.128Z,4.30
2022-11-16T13:44:18.787Z,5.23
2022-11-16T13:46:56.574Z,4.67
2022-11-16T13:49:24.086Z,4.57
2022-11-16T13:51:52.810Z,4.60
2022-11-16T13:54:45.677Z,4.80
2022-11-16T13:57:33.365Z,5.27
2022-11-16T14:00:04.887Z,5.17
2022-11-16T14:02:41.470Z,6.30
2022-11-16T14:05:37.758Z,5.00
2022-11-16T14:08:19.864Z,5.57
2022-11-16T14:10:52.635Z,5.67
2022-11-16T14:13:38.379Z,5.63
2022-11-16T14:16:21.450Z,5.20
2022-11-16T14:18:59.731Z,5.40
2022-11-16T14:21:26.827Z,5.20
2022-11-16T14:23:53.850Z,5.97
2022-11-16T14:26:32.995Z,6.33
2022-11-16T14:29:20.569Z,6.17
2022-11-16T14:31:50.443Z,6.93
2022-11-16T14:34:19.508Z,5.63
2022-11-16T14:36:47.569Z,7.20
2022-11-16T14:39:24.285Z,5.67
2022-11-16T14:41:51.802Z,6.67
2022-11-16T14:44:21.676Z,6.10
2022-11-16T14:46:49.038Z,6.63
2022-11-16T14:49:17.589Z,6.93
2022-11-16T14:51:47.312Z,7.17
2022-11-16T14:54:14.399Z,6.80
2022-11-16T14:57:01.085Z,7.87
2022-11-16T14:59:28.848Z,8.57
2022-11-16T15:01:55.976Z,9.27
2022-11-16T15:04:24.778Z,8.37
2022-11-16T15:06:54.772Z,9.57
2022-11-16T15:09:25.091Z,9.47
2022-11-16T15:12:11.276Z,10.37
2022-11-16T15:14:41.205Z,11.90
2022-11-16T15:17:09.774Z,11.73
2022-11-16T15:19:36.864Z,9.80
2022-11-16T15:22:05.251Z,9.67
2022-11-16T15:24:33.447Z,10.77
2022-11-16T15:27:11.197Z,10.43
2022-11-16T15:29:38.688Z,9.57
2022-11-16T15:32:07.260Z,10.10
2022-11-16T15:34:34.362Z,10.60
2022-11-16T15:37:01.518Z,10.23
2022-11-16T15:39:31.077Z,8.40
2022-11-16T15:42:03.489Z,11.20
2022-11-16T15:44:31.424Z,8.20
2022-11-16T15:46:58.895Z,9.90
2022-11-16T15:49:29.307Z,13.47
2022-11-16T15:51:57.657Z,8.93
2022-11-16T15:54:28.651Z,8.77
2022-11-16T15:56:56.956Z,8.60
2022-11-16T15:59:32.872Z,7.90
2022-11-16T16:01:59.967Z,9.80
2022-11-16T16:04:27.451Z,10.27
2022-11-16T16:06:56.146Z,8.57
2022-11-16T16:09:27.825Z,9.20
2022-11-16T16:11:56.176Z,10.13
2022-11-16T16:14:24.518Z,10.80
2022-11-16T16:16:53.350Z,11.07
2022-11-16T16:19:38.706Z,8.50
2022-11-16T16:22:06.859Z,10.30
2022-11-16T16:24:44.220Z,8.47
2022-11-16T16:27:14.093Z,13.07
2022-11-16T16:29:41.370Z,10.07
2022-11-16T16:32:16.924Z,11.13
2022-11-16T16:34:44.047Z,10.50
2022-11-16T16:37:12.798Z,10.07
2022-11-16T16:39:40.947Z,10.23
2022-11-16T16:42:13.561Z,8.47
2022-11-16T16:44:41.239Z,10.10
2022-11-16T16:47:08.674Z,11.57
2022-11-16T16:49:35.960Z,11.13
2022-11-16T16:52:03.254Z,10.07
2022-11-16T16:54:30.342Z,9.90
2022-11-16T16:56:58.011Z,11.27
2022-11-16T16:59:25.514Z,11.53
2022-11-16T17:01:52.651Z,10.70
2022-11-16T17:04:19.934Z,10.47
2022-11-16T17:06:47.961Z,10.37
2022-11-16T17:09:15.069Z,13.70
2022-11-16T17:11:42.133Z,12.47
2022-11-16T17:14:09.240Z,7.93
2022-11-16T17:16:36.787Z,8.53
2022-11-16T17:19:04.293Z,10.40
2022-11-16T17:21:31.617Z,9.43
2022-11-16T17:23:58.713Z,9.73
2022-11-16T17:26:29.283Z,8.93
2022-11-16T17:28:57.138Z,8.57
2022-11-16T17:31:24.606Z,11.43
2022-11-16T17:33:51.719Z,8.77
2022-11-16T17:36:18.802Z,9.80
2022-11-16T17:38:46.131Z,8.90
2022-11-16T17:41:14.744Z,9.67
2022-11-16T17:43:43.044Z,8.63
2022-11-16T17:46:11.382Z,9.60
2022-11-16T17:48:38.930Z,9.73
2022-11-16T17:51:06.179Z,10.93
2022-11-16T17:53:35.122Z,11.63
2022-11-16T17:56:03.136Z,9.23
2022-11-16T17:58:30.799Z,11.30
2022-11-16T18:00:58.101Z,14.20
2022-11-16T18:03:25.293Z,12.47
2022-11-16T18:05:52.450Z,14.00
2022-11-16T18:08:19.522Z,10.93
2022-11-16T18:10:46.604Z,11.40
2022-11-16T18:13:13.754Z,10.40
2022-11-16T18:15:42.568Z,10.13
2022-11-16T18:18:09.951Z,10.73
2022-11-16T18:20:37.836Z,9.43
2022-11-16T18:23:05.363Z,8.27
2022-11-16T18:25:36.806Z,9.13
2022-11-16T18:28:03.936Z,7.10
2022-11-16T18:30:31.018Z,6.97
2022-11-16T18:32:58.105Z,6.97
2022-11-16T18:35:25.164Z,7.73
2022-11-16T18:37:52.270Z,6.57
2022-11-16T18:40:19.443Z,7.77
2022-11-16T18:42:46.637Z,6.23
2022-11-16T18:45:13.844Z,6.17
2022-11-16T18:47:40.915Z,5.67
2022-11-16T18:50:18.086Z,6.00
2022-11-16T18:52:47.359Z,5.20
2022-11-16T18:55:14.515Z,4.07
2022-11-16T18:57:41.642Z,4.97
2022-11-16T19:00:09.785Z,5.47
2022-11-16T19:02:36.914Z,5.13
2022-11-16T19:05:04.115Z,4.93
2022-11-16T19:07:31.278Z,5.07
2022-11-16T19:09:58.391Z,4.27
2022-11-16T19:12:25.549Z,4.43
2022-11-16T19:14:52.668Z,4.30
2022-11-16T19:17:20.950Z,3.90
2022-11-16T19:19:48.070Z,3.07
2022-11-16T19:22:15.172Z,4.13
2022-11-16T19:24:42.221Z,4.30
2022-11-16T19:27:09.316Z,4.07
2022-11-16T19:29:36.443Z,3.30
2022-11-16T19:32:03.561Z,4.60
2022-11-16T19:34:33.417Z,4.17
2022-11-16T19:37:00.760Z,3.80
2022-11-16T19:39:27.827Z,3.17
2022-11-16T19:41:54.914Z,2.03
2022-11-16T19:44:21.978Z,3.20
2022-11-16T19:46:49.068Z,2.43
2022-11-16T19:49:20.200Z,3.20
2022-11-16T19:51:47.485Z,3.27
2022-11-16T19:54:14.891Z,3.13
2022-11-16T19:56:42.370Z,4.87
2022-11-16T19:59:09.447Z,2.80
2022-11-16T20:01:36.612Z,2.03
2022-11-16T20:04:03.759Z,2.10
2022-11-16T20:06:30.909Z,2.53
2022-11-16T20:09:00.577Z,5.57
2022-11-16T20:11:28.362Z,2.97
2022-11-16T20:13:56.108Z,2.50
2022-11-16T20:16:24.457Z,3.83
2022-11-16T20:18:52.312Z,2.50
2022-11-16T20:21:23.144Z,2.20
2022-11-16T20:23:53.751Z,2.77
2022-11-16T20:26:21.466Z,2.80
2022-11-16T20:28:51.026Z,2.90
2022-11-16T20:31:18.677Z,4.60
2022-11-16T20:33:52.614Z,2.07
2022-11-16T20:36:20.033Z,2.80
2022-11-16T20:38:47.122Z,3.47
2022-11-16T20:41:15.469Z,3.87
2022-11-16T20:43:43.303Z,2.03
2022-11-16T20:46:11.340Z,3.07
2022-11-16T20:48:39.139Z,2.40
2022-11-16T20:51:06.396Z,2.17
2022-11-16T20:53:34.178Z,2.37
2022-11-16T20:56:04.711Z,2.30
2022-11-16T20:58:32.287Z,3.97
2022-11-16T21:01:11.104Z,3.20
2022-11-16T21:03:38.543Z,3.30
2022-11-16T21:06:08.777Z,2.93
2022-11-16T21:08:36.470Z,3.17
2022-11-16T21:11:09.797Z,2.90
2022-11-16T21:13:55.637Z,5.93
2022-11-16T21:16:22.833Z,2.53
2022-11-16T21:18:49.920Z,2.77
2022-11-16T21:21:16.961Z,3.13
2022-11-16T21:23:51.202Z,2.70
2022-11-16T21:26:19.794Z,2.23
2022-11-16T21:28:46.933Z,3.20
2022-11-16T21:31:15.604Z,2.40
2022-11-16T21:33:43.896Z,2.20
2022-11-16T21:36:12.483Z,3.17
2022-11-16T21:38:39.803Z,3.67
2022-11-16T21:41:07.467Z,1.90
2022-11-16T21:43:38.024Z,3.03
2022-11-16T21:46:06.524Z,2.90
2022-11-16T21:48:34.296Z,3.60
2022-11-16T21:51:08.658Z,3.50
2022-11-16T21:53:36.329Z,2.23
2022-11-16T21:56:04.444Z,2.50
2022-11-16T21:58:31.657Z,2.43
2022-11-16T22:00:59.601Z,3.10
2022-11-16T22:03:27.793Z,3.07
2022-11-16T22:06:14.511Z,2.90
2022-11-16T22:08:41.600Z,2.20
2022-11-16T22:11:09.488Z,2.93
2022-11-16T22:13:37.312Z,2.80
2022-11-16T22:16:05.485Z,3.03
2022-11-16T22:18:33.006Z,4.20
2022-11-16T22:21:00.737Z,3.97
2022-11-16T22:23:28.101Z,2.70
2022-11-16T22:25:55.389Z,4.17
2022-11-16T22:28:22.546Z,2.87
2022-11-16T22:30:51.966Z,3.63
2022-11-16T22:33:19.357Z,2.27
2022-11-16T22:35:47.662Z,3.33
2022-11-16T22:38:14.713Z,2.73
2022-11-16T22:40:41.749Z,3.13
2022-11-16T22:43:08.830Z,3.70
2022-11-16T22:45:35.880Z,2.97
2022-11-16T22:48:02.942Z,2.57
2022-11-16T22:50:29.978Z,3.33
2022-11-16T22:52:59.069Z,2.87
2022-11-16T22:55:26.161Z,2.10
2022-11-16T22:57:53.226Z,3.10
2022-11-16T23:00:20.437Z,3.23
2022-11-16T23:02:47.550Z,3.43
2022-11-16T23:05:14.696Z,3.27
2022-11-16T23:07:43.849Z,2.63
2022-11-16T23:10:11.112Z,3.13
2022-11-16T23:12:56.940Z,3.07
2022-11-16T23:15:48.704Z,3.43
2022-11-16T23:18:16.035Z,3.33
2022-11-16T23:21:01.928Z,3.10
2022-11-16T23:23:47.815Z,3.93
2022-11-16T23:26:42.083Z,2.67
2022-11-16T23:29:10.490Z,3.13
2022-11-16T23:31:38.121Z,3.13
2022-11-16T23:34:05.376Z,3.13
2022-11-16T23:36:32.450Z,3.63
2022-11-16T23:38:59.524Z,1.90
2022-11-16T23:41:45.126Z,2.47
2022-11-16T23:44:12.193Z,3.00
2022-11-16T23:46:39.272Z,2.73
2022-11-16T23:49:06.361Z,2.90
2022-11-16T23:51:33.416Z,2.47
2022-11-16T23:54:00.502Z,2.73
2022-11-16T23:56:28.155Z,3.60
2022-11-16T23:58:58.134Z,2.30
